createdAt,value
2023-02-22T00:00:05.505Z,4913.00
2023-02-22T00:00:15.559Z,4907.00
2023-02-22T00:00:25.515Z,4907.00
2023-02-22T00:00:35.553Z,4892.00
2023-02-22T00:00:45.540Z,4890.00
2023-02-22T00:00:55.510Z,4888.00
2023-02-22T00:01:05.575Z,4888.00
2023-02-22T00:01:15.852Z,4879.00
2023-02-22T00:01:25.573Z,4863.00
2023-02-22T00:01:35.933Z,4857.00
2023-02-22T00:01:45.584Z,4855.00
2023-02-22T00:01:55.606Z,4849.00
2023-02-22T00:02:05.607Z,4838.00
2023-02-22T00:02:15.576Z,4838.00
2023-02-22T00:02:25.727Z,4841.00
2023-02-22T00:02:35.554Z,4857.00
2023-02-22T00:02:45.569Z,4863.00
2023-02-22T00:02:55.595Z,4874.00
2023-02-22T00:03:05.617Z,4881.00
2023-02-22T00:03:15.656Z,4870.00
2023-02-22T00:03:25.636Z,4866.00
2023-02-22T00:03:35.579Z,4842.00
2023-02-22T00:03:45.568Z,4846.00
2023-02-22T00:03:55.552Z,4854.00
2023-02-22T00:04:05.568Z,4834.00
2023-02-22T00:04:15.546Z,4821.00
2023-02-22T00:04:25.569Z,4835.00
2023-02-22T00:04:35.542Z,4812.00
2023-02-22T00:04:45.586Z,4815.00
2023-02-22T00:04:55.538Z,4811.00
2023-02-22T00:05:05.566Z,4832.00
2023-02-22T00:05:15.566Z,4821.00
2023-02-22T00:05:25.581Z,4850.00
2023-02-22T00:05:35.570Z,4857.00
2023-02-22T00:05:45.573Z,4876.00
2023-02-22T00:05:55.577Z,4877.00
2023-02-22T00:06:05.622Z,4883.00
2023-02-22T00:06:15.595Z,4881.00
2023-02-22T00:06:25.630Z,4876.00
2023-02-22T00:06:35.635Z,4858.00
2023-02-22T00:06:45.648Z,4853.00
2023-02-22T00:06:55.631Z,4845.00
2023-02-22T00:07:05.670Z,4846.00
2023-02-22T00:07:15.647Z,4838.00
2023-02-22T00:07:25.680Z,4837.00
2023-02-22T00:07:35.690Z,4825.00
2023-02-22T00:07:45.711Z,4839.00
2023-02-22T00:07:55.688Z,4856.00
2023-02-22T00:08:05.728Z,4844.00
2023-02-22T00:08:15.689Z,4837.00
2023-02-22T00:08:25.695Z,4839.00
2023-02-22T00:08:35.748Z,4850.00
2023-02-22T00:08:45.762Z,4834.00
2023-02-22T00:08:55.738Z,4833.00
2023-02-22T00:09:05.762Z,4812.00
2023-02-22T00:09:15.755Z,4804.00
2023-02-22T00:09:25.770Z,4809.00
2023-02-22T00:09:35.791Z,4824.00
2023-02-22T00:09:45.837Z,4806.00
2023-02-22T00:09:55.803Z,4811.00
2023-02-22T00:10:05.806Z,4824.00
2023-02-22T00:10:15.825Z,4843.00
2023-02-22T00:10:25.808Z,4829.00
2023-02-22T00:10:35.836Z,4851.00
2023-02-22T00:10:45.836Z,4843.00
2023-02-22T00:10:55.838Z,4838.00
2023-02-22T00:11:05.865Z,4826.00
2023-02-22T00:11:16.124Z,4821.00
2023-02-22T00:11:25.853Z,4797.00
2023-02-22T00:11:35.867Z,4785.00
2023-02-22T00:11:45.848Z,4787.00
2023-02-22T00:11:55.874Z,4774.00
2023-02-22T00:12:05.862Z,4780.00
2023-02-22T00:12:15.864Z,4783.00
2023-02-22T00:12:25.860Z,4769.00
2023-02-22T00:12:35.852Z,4780.00
2023-02-22T00:12:45.863Z,4770.00
2023-02-22T00:12:55.860Z,4765.00
2023-02-22T00:13:05.862Z,4754.00
2023-02-22T00:13:15.859Z,4746.00
2023-02-22T00:13:25.858Z,4760.00
2023-02-22T00:13:35.879Z,4761.00
2023-02-22T00:13:45.860Z,4761.00
2023-02-22T00:13:55.849Z,4773.00
2023-02-22T00:14:05.859Z,4757.00
2023-02-22T00:14:15.856Z,4772.00
2023-02-22T00:14:25.874Z,4783.00
2023-02-22T00:14:35.878Z,4788.00
2023-02-22T00:14:45.857Z,4780.00
2023-02-22T00:14:55.908Z,4790.00
2023-02-22T00:15:05.846Z,4795.00
2023-02-22T00:15:15.860Z,4777.00
2023-02-22T00:15:25.869Z,4768.00
2023-02-22T00:15:35.864Z,4780.00
2023-02-22T00:15:45.852Z,4791.00
2023-02-22T00:15:55.862Z,4770.00
2023-02-22T00:16:05.913Z,4777.00
2023-02-22T00:16:15.858Z,4777.00
2023-02-22T00:16:25.915Z,4770.00
2023-02-22T00:16:35.860Z,4772.00
2023-02-22T00:16:45.865Z,4759.00
2023-02-22T00:16:55.873Z,4746.00
2023-02-22T00:17:05.845Z,4755.00
2023-02-22T00:17:15.829Z,4739.00
2023-02-22T00:17:25.869Z,4761.00
2023-02-22T00:17:35.856Z,4757.00
2023-02-22T00:17:45.858Z,4752.00
2023-02-22T00:17:55.854Z,4749.00
2023-02-22T00:18:05.870Z,4754.00
2023-02-22T00:18:15.887Z,4744.00
2023-02-22T00:18:25.876Z,4741.00
2023-02-22T00:18:35.920Z,4745.00
2023-02-22T00:18:45.895Z,4738.00
2023-02-22T00:18:55.907Z,4740.00
2023-02-22T00:19:05.943Z,4753.00
2023-02-22T00:19:15.939Z,4756.00
2023-02-22T00:19:25.930Z,4774.00
2023-02-22T00:19:35.981Z,4768.00
2023-02-22T00:19:45.948Z,4786.00
2023-02-22T00:19:56.033Z,4798.00
2023-02-22T00:20:05.977Z,4830.00
2023-02-22T00:20:17.822Z,4814.00
2023-02-22T00:20:25.984Z,4874.00
2023-02-22T00:20:35.983Z,4873.00
2023-02-22T00:20:45.997Z,4857.00
2023-02-22T00:20:55.972Z,4854.00
2023-02-22T00:21:05.985Z,4830.00
2023-02-22T00:21:16.217Z,4813.00
2023-02-22T00:21:26.075Z,4840.00
2023-02-22T00:21:36.076Z,4838.00
2023-02-22T00:21:46.076Z,4848.00
2023-02-22T00:21:56.057Z,4855.00
2023-02-22T00:22:06.058Z,4853.00
2023-02-22T00:22:16.072Z,4865.00
2023-02-22T00:22:26.066Z,4862.00
2023-02-22T00:22:36.125Z,4858.00
2023-02-22T00:22:46.082Z,4876.00
2023-02-22T00:22:56.063Z,4905.00
2023-02-22T00:23:06.058Z,4909.00
2023-02-22T00:23:16.062Z,4913.00
2023-02-22T00:23:26.063Z,4915.00
2023-02-22T00:23:36.053Z,4934.00
2023-02-22T00:23:46.059Z,4932.00
2023-02-22T00:23:56.065Z,4911.00
2023-02-22T00:24:06.077Z,4909.00
2023-02-22T00:24:16.073Z,4923.00
2023-02-22T00:24:26.081Z,4938.00
2023-02-22T00:24:36.088Z,4944.00
2023-02-22T00:24:46.051Z,4945.00
2023-02-22T00:24:56.133Z,4952.00
2023-02-22T00:25:06.061Z,4955.00
2023-02-22T00:25:16.089Z,4947.00
2023-02-22T00:25:26.058Z,4926.00
2023-02-22T00:25:36.064Z,4930.00
2023-02-22T00:25:46.055Z,4917.00
2023-02-22T00:25:56.083Z,4911.00
2023-02-22T00:26:06.070Z,4908.00
2023-02-22T00:26:16.050Z,4897.00
2023-02-22T00:26:26.054Z,4916.00
2023-02-22T00:26:36.076Z,4916.00
2023-02-22T00:26:46.082Z,4919.00
2023-02-22T00:26:56.053Z,4928.00
2023-02-22T00:27:06.048Z,4940.00
2023-02-22T00:27:16.028Z,4937.00
2023-02-22T00:27:26.098Z,4936.00
2023-02-22T00:27:36.085Z,4932.00
2023-02-22T00:27:46.060Z,4922.00
2023-02-22T00:27:56.098Z,4916.00
2023-02-22T00:28:06.109Z,4898.00
2023-02-22T00:28:16.119Z,4887.00
2023-02-22T00:28:26.124Z,4880.00
2023-02-22T00:28:36.112Z,4886.00
2023-02-22T00:28:46.120Z,4878.00
2023-02-22T00:28:56.136Z,4874.00
2023-02-22T00:29:06.163Z,4858.00
2023-02-22T00:29:16.154Z,4864.00
2023-02-22T00:29:26.195Z,4854.00
2023-02-22T00:29:36.143Z,4841.00
2023-02-22T00:29:46.150Z,4847.00
2023-02-22T00:29:56.256Z,4848.00
2023-02-22T00:30:06.243Z,4856.00
2023-02-22T00:30:16.315Z,4861.00
2023-02-22T00:30:26.262Z,4862.00
2023-02-22T00:30:36.237Z,4865.00
2023-02-22T00:30:46.230Z,4855.00
2023-02-22T00:30:56.228Z,4880.00
2023-02-22T00:31:06.278Z,4878.00
2023-02-22T00:31:16.495Z,4877.00
2023-02-22T00:31:26.456Z,4897.00
2023-02-22T00:31:36.458Z,4891.00
2023-02-22T00:31:46.474Z,4890.00
2023-02-22T00:31:56.537Z,4900.00
2023-02-22T00:32:06.513Z,4899.00
2023-02-22T00:32:16.529Z,4915.00
2023-02-22T00:32:26.462Z,4939.00
2023-02-22T00:32:36.501Z,4927.00
2023-02-22T00:32:46.480Z,4928.00
2023-02-22T00:32:56.438Z,4915.00
2023-02-22T00:33:06.445Z,4913.00
2023-02-22T00:33:16.459Z,4912.00
2023-02-22T00:33:26.442Z,4895.00
2023-02-22T00:33:36.448Z,4892.00
2023-02-22T00:33:46.449Z,4892.00
2023-02-22T00:33:56.452Z,4897.00
2023-02-22T00:34:06.462Z,4902.00
2023-02-22T00:34:16.416Z,4890.00
2023-02-22T00:34:26.423Z,4899.00
2023-02-22T00:34:36.431Z,4888.00
2023-02-22T00:34:46.427Z,4882.00
2023-02-22T00:34:56.491Z,4861.00
2023-02-22T00:35:06.447Z,4861.00
2023-02-22T00:35:16.456Z,4868.00
2023-02-22T00:35:26.453Z,4852.00
2023-02-22T00:35:36.474Z,4862.00
2023-02-22T00:35:46.498Z,4853.00
2023-02-22T00:35:56.478Z,4871.00
2023-02-22T00:36:06.490Z,4889.00
2023-02-22T00:36:16.484Z,4912.00
2023-02-22T00:36:26.519Z,4914.00
2023-02-22T00:36:36.530Z,4931.00
2023-02-22T00:36:46.512Z,4940.00
2023-02-22T00:36:56.545Z,4929.00
2023-02-22T00:37:06.543Z,4932.00
2023-02-22T00:37:16.532Z,4924.00
2023-02-22T00:37:26.560Z,4900.00
2023-02-22T00:37:36.585Z,4901.00
2023-02-22T00:37:46.551Z,4893.00
2023-02-22T00:37:56.568Z,4872.00
2023-02-22T00:38:06.594Z,4848.00
2023-02-22T00:38:16.571Z,4839.00
2023-02-22T00:38:26.621Z,4838.00
2023-02-22T00:38:36.613Z,4836.00
2023-02-22T00:38:46.632Z,4841.00
2023-02-22T00:38:56.658Z,4846.00
2023-02-22T00:39:06.634Z,4849.00
2023-02-22T00:39:16.630Z,4841.00
2023-02-22T00:39:26.664Z,4843.00
2023-02-22T00:39:36.677Z,4862.00
2023-02-22T00:39:46.661Z,4869.00
2023-02-22T00:39:56.730Z,4855.00
2023-02-22T00:40:06.686Z,4844.00
2023-02-22T00:40:16.696Z,4849.00
2023-02-22T00:40:26.727Z,4865.00
2023-02-22T00:40:36.722Z,4860.00
2023-02-22T00:40:46.745Z,4874.00
2023-02-22T00:40:56.740Z,4881.00
2023-02-22T00:41:06.734Z,4887.00
2023-02-22T00:41:17.012Z,4878.00
2023-02-22T00:41:26.908Z,4874.00
2023-02-22T00:41:36.891Z,4877.00
2023-02-22T00:41:46.912Z,4886.00
2023-02-22T00:41:56.922Z,4899.00
2023-02-22T00:42:06.923Z,4901.00
2023-02-22T00:42:16.886Z,4910.00
2023-02-22T00:42:26.893Z,4917.00
2023-02-22T00:42:36.835Z,4922.00
2023-02-22T00:42:46.884Z,4925.00
2023-02-22T00:42:56.842Z,4915.00
2023-02-22T00:43:06.871Z,4904.00
2023-02-22T00:43:16.860Z,4904.00
2023-02-22T00:43:26.868Z,4896.00
2023-02-22T00:43:36.854Z,4893.00
2023-02-22T00:43:46.864Z,4886.00
2023-02-22T00:43:56.859Z,4889.00
2023-02-22T00:44:06.856Z,4883.00
2023-02-22T00:44:16.858Z,4870.00
2023-02-22T00:44:26.874Z,4874.00
2023-02-22T00:44:36.849Z,4866.00
2023-02-22T00:44:46.870Z,4869.00
2023-02-22T00:44:56.920Z,4843.00
2023-02-22T00:45:06.852Z,4843.00
2023-02-22T00:45:16.850Z,4843.00
2023-02-22T00:45:26.871Z,4837.00
2023-02-22T00:45:36.977Z,4845.00
2023-02-22T00:45:46.883Z,4845.00
2023-02-22T00:45:56.884Z,4844.00
2023-02-22T00:46:06.930Z,4848.00
2023-02-22T00:46:16.928Z,4862.00
2023-02-22T00:46:26.893Z,4860.00
2023-02-22T00:46:36.867Z,4843.00
2023-02-22T00:46:46.866Z,4847.00
2023-02-22T00:46:56.874Z,4846.00
2023-02-22T00:47:06.896Z,4832.00
2023-02-22T00:47:16.874Z,4843.00
2023-02-22T00:47:26.914Z,4824.00
2023-02-22T00:47:36.898Z,4849.00
2023-02-22T00:47:46.900Z,4869.00
2023-02-22T00:47:56.915Z,4900.00
2023-02-22T00:48:06.941Z,4914.00
2023-02-22T00:48:16.919Z,4924.00
2023-02-22T00:48:26.963Z,4963.00
2023-02-22T00:48:36.938Z,4981.00
2023-02-22T00:48:46.950Z,4994.00
2023-02-22T00:48:56.986Z,4983.00
2023-02-22T00:49:06.976Z,4975.00
2023-02-22T00:49:16.972Z,4963.00
2023-02-22T00:49:27.015Z,4942.00
2023-02-22T00:49:36.999Z,4931.00
2023-02-22T00:49:47.003Z,4935.00
2023-02-22T00:49:57.062Z,4933.00
2023-02-22T00:50:07.042Z,4949.00
2023-02-22T00:50:17.024Z,4955.00
2023-02-22T00:50:27.053Z,4962.00
2023-02-22T00:50:37.076Z,4975.00
2023-02-22T00:50:47.055Z,4977.00
2023-02-22T00:50:57.083Z,4973.00
2023-02-22T00:51:07.092Z,4948.00
2023-02-22T00:51:17.366Z,4937.00
2023-02-22T00:51:27.269Z,4951.00
2023-02-22T00:51:37.275Z,4948.00
2023-02-22T00:51:47.272Z,4932.00
2023-02-22T00:51:57.278Z,4938.00
2023-02-22T00:52:07.307Z,4936.00
2023-02-22T00:52:17.298Z,4935.00
2023-02-22T00:52:27.283Z,4928.00
2023-02-22T00:52:37.298Z,4923.00
2023-02-22T00:52:47.281Z,4921.00
2023-02-22T00:52:57.277Z,4925.00
2023-02-22T00:53:07.327Z,4903.00
2023-02-22T00:53:17.290Z,4906.00
2023-02-22T00:53:27.296Z,4911.00
2023-02-22T00:53:37.280Z,4927.00
2023-02-22T00:53:47.280Z,4931.00
2023-02-22T00:53:57.298Z,4953.00
2023-02-22T00:54:07.273Z,4941.00
2023-02-22T00:54:17.271Z,4938.00
2023-02-22T00:54:27.287Z,4934.00
2023-02-22T00:54:37.281Z,4930.00
2023-02-22T00:54:47.257Z,4915.00
2023-02-22T00:54:57.325Z,4908.00
2023-02-22T00:55:07.288Z,4914.00
2023-02-22T00:55:17.294Z,4911.00
2023-02-22T00:55:27.295Z,4909.00
2023-02-22T00:55:37.296Z,4931.00
2023-02-22T00:55:47.274Z,4931.00
2023-02-22T00:55:57.292Z,4930.00
2023-02-22T00:56:07.271Z,4938.00
2023-02-22T00:56:17.288Z,4939.00
2023-02-22T00:56:27.259Z,4931.00
2023-02-22T00:56:37.273Z,4923.00
2023-02-22T00:56:47.285Z,4919.00
2023-02-22T00:56:57.256Z,4900.00
2023-02-22T00:57:07.242Z,4896.00
2023-02-22T00:57:18.538Z,4918.00
2023-02-22T00:57:27.241Z,4965.00
2023-02-22T00:57:37.262Z,4959.00
2023-02-22T00:57:47.252Z,4942.00
2023-02-22T00:57:57.283Z,4924.00
2023-02-22T00:58:07.251Z,4912.00
2023-02-22T00:58:17.272Z,4917.00
2023-02-22T00:58:27.264Z,4884.00
2023-02-22T00:58:37.279Z,4883.00
2023-02-22T00:58:47.249Z,4876.00
2023-02-22T00:58:57.250Z,4874.00
2023-02-22T00:59:07.251Z,4868.00
2023-02-22T00:59:17.276Z,4882.00
2023-02-22T00:59:27.261Z,4871.00
2023-02-22T00:59:37.253Z,4890.00
2023-02-22T00:59:47.273Z,4878.00
2023-02-22T00:59:57.248Z,4875.00
2023-02-22T01:00:07.302Z,4865.00
2023-02-22T01:00:17.260Z,4855.00
2023-02-22T01:00:27.272Z,4859.00
2023-02-22T01:00:37.262Z,4860.00
2023-02-22T01:00:47.283Z,4859.00
2023-02-22T01:00:57.283Z,4860.00
2023-02-22T01:01:07.283Z,4866.00
2023-02-22T01:01:17.491Z,4855.00
2023-02-22T01:01:27.319Z,4850.00
2023-02-22T01:01:37.277Z,4834.00
2023-02-22T01:01:47.249Z,4827.00
2023-02-22T01:01:57.298Z,4819.00
2023-02-22T01:02:07.243Z,4826.00
2023-02-22T01:02:17.278Z,4817.00
2023-02-22T01:02:27.268Z,4811.00
2023-02-22T01:02:37.287Z,4813.00
2023-02-22T01:02:47.257Z,4801.00
2023-02-22T01:02:57.245Z,4813.00
2023-02-22T01:03:07.260Z,4793.00
2023-02-22T01:03:17.265Z,4790.00
2023-02-22T01:03:27.243Z,4790.00
2023-02-22T01:03:37.243Z,4785.00
2023-02-22T01:03:47.236Z,4780.00
2023-02-22T01:03:57.249Z,4764.00
2023-02-22T01:04:07.254Z,4763.00
2023-02-22T01:04:17.266Z,4755.00
2023-02-22T01:04:27.272Z,4734.00
2023-02-22T01:04:37.271Z,4741.00
2023-02-22T01:04:47.269Z,4730.00
2023-02-22T01:04:57.294Z,4720.00
2023-02-22T01:05:07.379Z,4707.00
2023-02-22T01:05:17.322Z,4697.00
2023-02-22T01:05:27.312Z,4689.00
2023-02-22T01:05:37.328Z,4687.00
2023-02-22T01:05:47.326Z,4680.00
2023-02-22T01:05:57.354Z,4681.00
2023-02-22T01:06:07.366Z,4685.00
2023-02-22T01:06:17.356Z,4665.00
2023-02-22T01:06:27.374Z,4658.00
2023-02-22T01:06:37.404Z,4658.00
2023-02-22T01:06:47.382Z,4643.00
2023-02-22T01:06:57.367Z,4650.00
2023-02-22T01:07:07.409Z,4648.00
2023-02-22T01:07:17.403Z,4648.00
2023-02-22T01:07:27.418Z,4648.00
2023-02-22T01:07:37.446Z,4657.00
2023-02-22T01:07:47.433Z,4655.00
2023-02-22T01:07:57.434Z,4635.00
2023-02-22T01:08:07.483Z,4645.00
2023-02-22T01:08:17.481Z,4651.00
2023-02-22T01:08:27.448Z,4651.00
2023-02-22T01:08:37.522Z,4640.00
2023-02-22T01:08:47.476Z,4643.00
2023-02-22T01:08:57.510Z,4638.00
2023-02-22T01:09:07.524Z,4630.00
2023-02-22T01:09:17.518Z,4639.00
2023-02-22T01:09:27.525Z,4627.00
2023-02-22T01:09:37.546Z,4619.00
2023-02-22T01:09:47.552Z,4625.00
2023-02-22T01:09:57.531Z,4641.00
2023-02-22T01:10:07.623Z,4637.00
2023-02-22T01:10:17.551Z,4636.00
2023-02-22T01:10:27.562Z,4637.00
2023-02-22T01:10:37.573Z,4631.00
2023-02-22T01:10:47.571Z,4631.00
2023-02-22T01:10:57.574Z,4627.00
2023-02-22T01:11:07.618Z,4647.00
2023-02-22T01:11:17.877Z,4649.00
2023-02-22T01:11:27.617Z,4650.00
2023-02-22T01:11:37.615Z,4647.00
2023-02-22T01:11:47.630Z,4657.00
2023-02-22T01:11:57.625Z,4660.00
2023-02-22T01:12:07.625Z,4651.00
2023-02-22T01:12:17.640Z,4659.00
2023-02-22T01:12:27.611Z,4647.00
2023-02-22T01:12:37.618Z,4636.00
2023-02-22T01:12:47.619Z,4647.00
2023-02-22T01:12:57.593Z,4649.00
2023-02-22T01:13:07.602Z,4646.00
2023-02-22T01:13:17.606Z,4636.00
2023-02-22T01:13:27.624Z,4631.00
2023-02-22T01:13:37.607Z,4631.00
2023-02-22T01:13:47.617Z,4634.00
2023-02-22T01:13:57.601Z,4606.00
2023-02-22T01:14:07.607Z,4601.00
2023-02-22T01:14:17.597Z,4613.00
2023-02-22T01:14:27.605Z,4621.00
2023-02-22T01:14:37.610Z,4610.00
2023-02-22T01:14:47.596Z,4610.00
2023-02-22T01:14:57.597Z,4601.00
2023-02-22T01:15:07.584Z,4606.00
2023-02-22T01:15:17.656Z,4620.00
2023-02-22T01:15:27.598Z,4622.00
2023-02-22T01:15:37.618Z,4622.00
2023-02-22T01:15:47.588Z,4633.00
2023-02-22T01:15:57.597Z,4622.00
2023-02-22T01:16:07.605Z,4643.00
2023-02-22T01:16:17.622Z,4645.00
2023-02-22T01:16:27.643Z,4641.00
2023-02-22T01:16:37.646Z,4640.00
2023-02-22T01:16:47.641Z,4647.00
2023-02-22T01:16:57.597Z,4642.00
2023-02-22T01:17:07.590Z,4646.00
2023-02-22T01:17:17.597Z,4642.00
2023-02-22T01:17:27.597Z,4647.00
2023-02-22T01:17:37.632Z,4674.00
2023-02-22T01:17:47.611Z,4682.00
2023-02-22T01:17:57.610Z,4689.00
2023-02-22T01:18:07.647Z,4698.00
2023-02-22T01:18:17.636Z,4699.00
2023-02-22T01:18:27.627Z,4714.00
2023-02-22T01:18:37.668Z,4699.00
2023-02-22T01:18:47.656Z,4696.00
2023-02-22T01:18:57.655Z,4693.00
2023-02-22T01:19:07.695Z,4685.00
2023-02-22T01:19:17.708Z,4686.00
2023-02-22T01:19:27.704Z,4693.00
2023-02-22T01:19:37.718Z,4698.00
2023-02-22T01:19:47.712Z,4698.00
2023-02-22T01:19:57.722Z,4712.00
2023-02-22T01:20:07.751Z,4707.00
2023-02-22T01:20:17.792Z,4712.00
2023-02-22T01:20:27.747Z,4713.00
2023-02-22T01:20:37.773Z,4690.00
2023-02-22T01:20:47.762Z,4688.00
2023-02-22T01:20:57.782Z,4678.00
2023-02-22T01:21:07.797Z,4673.00
2023-02-22T01:21:18.084Z,4660.00
2023-02-22T01:21:27.799Z,4644.00
2023-02-22T01:21:37.790Z,4645.00
2023-02-22T01:21:47.792Z,4652.00
2023-02-22T01:21:57.787Z,4667.00
2023-02-22T01:22:07.805Z,4648.00
2023-02-22T01:22:17.791Z,4669.00
2023-02-22T01:22:27.810Z,4693.00
2023-02-22T01:22:37.799Z,4700.00
2023-02-22T01:22:47.809Z,4711.00
2023-02-22T01:22:57.784Z,4709.00
2023-02-22T01:23:07.859Z,4718.00
2023-02-22T01:23:17.809Z,4714.00
2023-02-22T01:23:27.787Z,4705.00
2023-02-22T01:23:37.770Z,4709.00
2023-02-22T01:23:47.781Z,4688.00
2023-02-22T01:23:57.792Z,4691.00
2023-02-22T01:24:07.806Z,4676.00
2023-02-22T01:24:17.787Z,4693.00
2023-02-22T01:24:27.784Z,4692.00
2023-02-22T01:24:37.772Z,4689.00
2023-02-22T01:24:47.784Z,4688.00
2023-02-22T01:24:57.806Z,4687.00
2023-02-22T01:25:07.786Z,4693.00
2023-02-22T01:25:17.768Z,4692.00
2023-02-22T01:25:27.826Z,4689.00
2023-02-22T01:25:37.789Z,4674.00
2023-02-22T01:25:47.807Z,4682.00
2023-02-22T01:25:57.789Z,4683.00
2023-02-22T01:26:07.818Z,4682.00
2023-02-22T01:26:17.808Z,4674.00
2023-02-22T01:26:27.811Z,4666.00
2023-02-22T01:26:37.856Z,4662.00
2023-02-22T01:26:47.834Z,4652.00
2023-02-22T01:26:57.827Z,4648.00
2023-02-22T01:27:07.863Z,4659.00
2023-02-22T01:27:17.855Z,4660.00
2023-02-22T01:27:27.863Z,4637.00
2023-02-22T01:27:37.875Z,4644.00
2023-02-22T01:27:47.878Z,4636.00
2023-02-22T01:27:57.884Z,4645.00
2023-02-22T01:28:07.915Z,4656.00
2023-02-22T01:28:17.900Z,4657.00
2023-02-22T01:28:27.898Z,4672.00
2023-02-22T01:28:37.941Z,4664.00
2023-02-22T01:28:47.949Z,4657.00
2023-02-22T01:28:57.924Z,4640.00
2023-02-22T01:29:07.951Z,4632.00
2023-02-22T01:29:17.959Z,4630.00
2023-02-22T01:29:27.959Z,4633.00
2023-02-22T01:29:37.959Z,4620.00
2023-02-22T01:29:47.991Z,4626.00
2023-02-22T01:29:57.980Z,4645.00
2023-02-22T01:30:08.082Z,4627.00
2023-02-22T01:30:18.029Z,4648.00
2023-02-22T01:30:28.133Z,4658.00
2023-02-22T01:30:38.204Z,4665.00
2023-02-22T01:30:48.092Z,4670.00
2023-02-22T01:30:58.272Z,4673.00
2023-02-22T01:31:08.073Z,4685.00
2023-02-22T01:31:18.349Z,4662.00
2023-02-22T01:31:28.126Z,4670.00
2023-02-22T01:31:38.262Z,4655.00
2023-02-22T01:31:48.077Z,4671.00
2023-02-22T01:31:58.122Z,4660.00
2023-02-22T01:32:08.136Z,4646.00
2023-02-22T01:32:18.101Z,4645.00
2023-02-22T01:32:28.042Z,4659.00
2023-02-22T01:32:38.081Z,4656.00
2023-02-22T01:32:48.060Z,4655.00
2023-02-22T01:32:58.071Z,4654.00
2023-02-22T01:33:08.052Z,4658.00
2023-02-22T01:33:18.063Z,4655.00
2023-02-22T01:33:28.043Z,4639.00
2023-02-22T01:33:38.087Z,4639.00
2023-02-22T01:33:48.088Z,4659.00
2023-02-22T01:33:58.093Z,4654.00
2023-02-22T01:34:08.096Z,4654.00
2023-02-22T01:34:18.129Z,4669.00
2023-02-22T01:34:28.106Z,4669.00
2023-02-22T01:34:38.153Z,4685.00
2023-02-22T01:34:48.130Z,4688.00
2023-02-22T01:34:58.132Z,4687.00
2023-02-22T01:35:08.149Z,4673.00
2023-02-22T01:35:18.152Z,4666.00
2023-02-22T01:35:28.223Z,4679.00
2023-02-22T01:35:38.177Z,4693.00
2023-02-22T01:35:48.171Z,4690.00
2023-02-22T01:35:58.177Z,4686.00
2023-02-22T01:36:08.189Z,4678.00
2023-02-22T01:36:18.194Z,4666.00
2023-02-22T01:36:28.220Z,4678.00
2023-02-22T01:36:38.239Z,4691.00
2023-02-22T01:36:48.232Z,4691.00
2023-02-22T01:36:58.217Z,4677.00
2023-02-22T01:37:08.279Z,4673.00
2023-02-22T01:37:18.256Z,4662.00
2023-02-22T01:37:28.273Z,4673.00
2023-02-22T01:37:38.265Z,4691.00
2023-02-22T01:37:48.259Z,4690.00
2023-02-22T01:37:58.365Z,4682.00
2023-02-22T01:38:08.317Z,4679.00
2023-02-22T01:38:18.321Z,4678.00
2023-02-22T01:38:28.300Z,4679.00
2023-02-22T01:38:38.330Z,4658.00
2023-02-22T01:38:48.341Z,4667.00
2023-02-22T01:38:58.339Z,4670.00
2023-02-22T01:39:08.357Z,4641.00
2023-02-22T01:39:18.353Z,4636.00
2023-02-22T01:39:28.352Z,4640.00
2023-02-22T01:39:38.384Z,4630.00
2023-02-22T01:39:48.357Z,4619.00
2023-02-22T01:39:58.385Z,4614.00
2023-02-22T01:40:08.396Z,4603.00
2023-02-22T01:40:18.389Z,4604.00
2023-02-22T01:40:28.455Z,4598.00
2023-02-22T01:40:38.433Z,4571.00
2023-02-22T01:40:48.417Z,4574.00
2023-02-22T01:40:58.422Z,4573.00
2023-02-22T01:41:08.447Z,4546.00
2023-02-22T01:41:18.741Z,4553.00
2023-02-22T01:41:28.452Z,4550.00
2023-02-22T01:41:38.470Z,4543.00
2023-02-22T01:41:48.447Z,4547.00
2023-02-22T01:41:58.445Z,4544.00
2023-02-22T01:42:08.467Z,4537.00
2023-02-22T01:42:18.445Z,4531.00
2023-02-22T01:42:28.466Z,4523.00
2023-02-22T01:42:38.458Z,4525.00
2023-02-22T01:42:48.452Z,4535.00
2023-02-22T01:42:58.473Z,4538.00
2023-02-22T01:43:08.444Z,4530.00
2023-02-22T01:43:18.449Z,4546.00
2023-02-22T01:43:28.479Z,4568.00
2023-02-22T01:43:38.453Z,4597.00
2023-02-22T01:43:48.468Z,4615.00
2023-02-22T01:43:58.468Z,4628.00
2023-02-22T01:44:08.468Z,4633.00
2023-02-22T01:44:18.446Z,4647.00
2023-02-22T01:44:28.438Z,4655.00
2023-02-22T01:44:38.449Z,4663.00
2023-02-22T01:44:48.434Z,4674.00
2023-02-22T01:44:58.442Z,4673.00
2023-02-22T01:45:08.476Z,4680.00
2023-02-22T01:45:18.466Z,4682.00
2023-02-22T01:45:28.448Z,4685.00
2023-02-22T01:45:38.475Z,4696.00
2023-02-22T01:45:48.461Z,4701.00
2023-02-22T01:45:58.491Z,4700.00
2023-02-22T01:46:08.508Z,4712.00
2023-02-22T01:46:18.434Z,4722.00
2023-02-22T01:46:28.470Z,4727.00
2023-02-22T01:46:38.499Z,4734.00
2023-02-22T01:46:48.468Z,4734.00
2023-02-22T01:46:58.451Z,4725.00
2023-02-22T01:47:08.451Z,4734.00
2023-02-22T01:47:18.462Z,4741.00
2023-02-22T01:47:28.434Z,4740.00
2023-02-22T01:47:38.480Z,4741.00
2023-02-22T01:47:48.448Z,4737.00
2023-02-22T01:47:58.459Z,4736.00
2023-02-22T01:48:08.492Z,4726.00
2023-02-22T01:48:18.472Z,4714.00
2023-02-22T01:48:28.484Z,4710.00
2023-02-22T01:48:38.523Z,4703.00
2023-02-22T01:48:48.512Z,4705.00
2023-02-22T01:48:58.507Z,4712.00
2023-02-22T01:49:08.541Z,4708.00
2023-02-22T01:49:18.529Z,4714.00
2023-02-22T01:49:28.534Z,4713.00
2023-02-22T01:49:38.578Z,4706.00
2023-02-22T01:49:48.566Z,4710.00
2023-02-22T01:49:58.569Z,4720.00
2023-02-22T01:50:08.604Z,4718.00
2023-02-22T01:50:18.560Z,4704.00
2023-02-22T01:50:28.598Z,4709.00
2023-02-22T01:50:38.653Z,4717.00
2023-02-22T01:50:48.615Z,4708.00
2023-02-22T01:50:58.625Z,4719.00
2023-02-22T01:51:08.637Z,4726.00
2023-02-22T01:51:18.997Z,4714.00
2023-02-22T01:51:28.646Z,4703.00
2023-02-22T01:51:38.615Z,4694.00
2023-02-22T01:51:48.642Z,4686.00
2023-02-22T01:51:58.632Z,4678.00
2023-02-22T01:52:08.643Z,4676.00
2023-02-22T01:52:18.635Z,4670.00
2023-02-22T01:52:28.631Z,4680.00
2023-02-22T01:52:38.618Z,4671.00
2023-02-22T01:52:48.635Z,4673.00
2023-02-22T01:52:58.650Z,4678.00
2023-02-22T01:53:08.648Z,4671.00
2023-02-22T01:53:18.628Z,4666.00
2023-02-22T01:53:28.631Z,4661.00
2023-02-22T01:53:38.615Z,4666.00
2023-02-22T01:53:48.636Z,4673.00
2023-02-22T01:53:58.649Z,4676.00
2023-02-22T01:54:08.632Z,4674.00
2023-02-22T01:54:18.655Z,4673.00
2023-02-22T01:54:28.637Z,4685.00
2023-02-22T01:54:38.639Z,4695.00
2023-02-22T01:54:48.632Z,4685.00
2023-02-22T01:54:58.654Z,4709.00
2023-02-22T01:55:08.617Z,4716.00
2023-02-22T01:55:18.629Z,4715.00
2023-02-22T01:55:28.607Z,4717.00
2023-02-22T01:55:38.597Z,4718.00
2023-02-22T01:55:48.672Z,4731.00
2023-02-22T01:55:58.624Z,4741.00
2023-02-22T01:56:08.637Z,4754.00
2023-02-22T01:56:18.637Z,4774.00
2023-02-22T01:56:28.645Z,4771.00
2023-02-22T01:56:38.623Z,4773.00
2023-02-22T01:56:48.613Z,4768.00
2023-02-22T01:56:58.636Z,4771.00
2023-02-22T01:57:08.628Z,4744.00
2023-02-22T01:57:18.611Z,4739.00
2023-02-22T01:57:28.608Z,4728.00
2023-02-22T01:57:38.652Z,4711.00
2023-02-22T01:57:48.650Z,4695.00
2023-02-22T01:57:58.649Z,4683.00
2023-02-22T01:58:08.673Z,4698.00
2023-02-22T01:58:18.675Z,4686.00
2023-02-22T01:58:28.665Z,4667.00
2023-02-22T01:58:38.715Z,4663.00
2023-02-22T01:58:48.704Z,4654.00
2023-02-22T01:58:58.694Z,4642.00
2023-02-22T01:59:08.714Z,4650.00
2023-02-22T01:59:18.712Z,4643.00
2023-02-22T01:59:28.732Z,4639.00
2023-02-22T01:59:38.781Z,4639.00
2023-02-22T01:59:48.763Z,4635.00
2023-02-22T01:59:58.760Z,4634.00
2023-02-22T02:00:08.798Z,4636.00
2023-02-22T02:00:18.769Z,4637.00
2023-02-22T02:00:28.787Z,4632.00
2023-02-22T02:00:38.797Z,4630.00
2023-02-22T02:00:48.843Z,4633.00
2023-02-22T02:00:58.790Z,4636.00